sensor_id;sensor_type;location;lat;lon;timestamp;P1;durP1;ratioP1;P2;durP2;ratioP2
19167;SDS011;9716;53.114;18.040;2023-05-10T00:00:07;5.10;;;2.33;;
19167;SDS011;9716;53.114;18.040;2023-05-10T00:02:57;5.32;;;2.88;;
19167;SDS011;9716;53.114;18.040;2023-05-10T00:05:25;5.50;;;2.83;;
19167;SDS011;9716;53.114;18.040;2023-05-10T00:07:56;10.82;;;2.80;;
19167;SDS011;9716;53.114;18.040;2023-05-10T00:10:24;8.10;;;2.97;;
19167;SDS011;9716;53.114;18.040;2023-05-10T00:12:53;6.30;;;2.40;;
19167;SDS011;9716;53.114;18.040;2023-05-10T00:15:23;5.72;;;2.90;;
19167;SDS011;9716;53.114;18.040;2023-05-10T00:17:51;7.20;;;2.70;;
19167;SDS011;9716;53.114;18.040;2023-05-10T00:20:19;5.57;;;2.47;;
19167;SDS011;9716;53.114;18.040;2023-05-10T00:22:48;4.93;;;2.25;;
19167;SDS011;9716;53.114;18.040;2023-05-10T00:25:16;3.83;;;2.05;;
19167;SDS011;9716;53.114;18.040;2023-05-10T00:27:44;9.57;;;2.80;;
19167;SDS011;9716;53.114;18.040;2023-05-10T00:30:13;12.57;;;2.72;;
19167;SDS011;9716;53.114;18.040;2023-05-10T00:32:43;5.93;;;2.42;;
19167;SDS011;9716;53.114;18.040;2023-05-10T00:35:11;11.50;;;3.28;;
19167;SDS011;9716;53.114;18.040;2023-05-10T00:37:40;10.23;;;3.58;;
19167;SDS011;9716;53.114;18.040;2023-05-10T00:40:09;13.35;;;3.28;;
19167;SDS011;9716;53.114;18.040;2023-05-10T00:42:38;5.78;;;2.70;;
19167;SDS011;9716;53.114;18.040;2023-05-10T00:45:06;6.90;;;3.20;;
19167;SDS011;9716;53.114;18.040;2023-05-10T00:47:35;9.35;;;3.30;;
19167;SDS011;9716;53.114;18.040;2023-05-10T00:50:06;8.02;;;3.45;;
19167;SDS011;9716;53.114;18.040;2023-05-10T00:52:36;14.18;;;4.43;;
19167;SDS011;9716;53.114;18.040;2023-05-10T00:55:05;8.20;;;3.65;;
19167;SDS011;9716;53.114;18.040;2023-05-10T00:57:35;8.57;;;3.15;;
19167;SDS011;9716;53.114;18.040;2023-05-10T01:00:03;9.18;;;4.05;;
19167;SDS011;9716;53.114;18.040;2023-05-10T01:02:33;12.98;;;6.93;;
19167;SDS011;9716;53.114;18.040;2023-05-10T01:05:02;19.15;;;5.30;;
19167;SDS011;9716;53.114;18.040;2023-05-10T01:07:33;9.82;;;3.85;;
19167;SDS011;9716;53.114;18.040;2023-05-10T01:10:01;4.43;;;2.90;;
19167;SDS011;9716;53.114;18.040;2023-05-10T01:12:30;14.27;;;4.38;;
19167;SDS011;9716;53.114;18.040;2023-05-10T01:14:58;10.20;;;3.67;;
19167;SDS011;9716;53.114;18.040;2023-05-10T01:17:29;10.20;;;3.22;;
19167;SDS011;9716;53.114;18.040;2023-05-10T01:19:57;14.07;;;5.32;;
19167;SDS011;9716;53.114;18.040;2023-05-10T01:22:32;14.57;;;4.50;;
19167;SDS011;9716;53.114;18.040;2023-05-10T01:25:19;9.07;;;3.70;;
19167;SDS011;9716;53.114;18.040;2023-05-10T01:28:26;9.68;;;3.90;;
19167;SDS011;9716;53.114;18.040;2023-05-10T01:31:22;6.75;;;2.97;;
19167;SDS011;9716;53.114;18.040;2023-05-10T01:34:00;10.00;;;3.47;;
19167;SDS011;9716;53.114;18.040;2023-05-10T01:36:35;9.85;;;3.25;;
19167;SDS011;9716;53.114;18.040;2023-05-10T01:39:11;9.15;;;3.17;;
19167;SDS011;9716;53.114;18.040;2023-05-10T01:41:49;7.07;;;3.00;;
19167;SDS011;9716;53.114;18.040;2023-05-10T01:44:24;5.88;;;3.45;;
19167;SDS011;9716;53.114;18.040;2023-05-10T01:46:57;7.93;;;3.25;;
19167;SDS011;9716;53.114;18.040;2023-05-10T01:49:34;7.38;;;3.22;;
19167;SDS011;9716;53.114;18.040;2023-05-10T01:52:08;5.10;;;2.95;;
19167;SDS011;9716;53.114;18.040;2023-05-10T01:54:42;9.90;;;2.72;;
19167;SDS011;9716;53.114;18.040;2023-05-10T01:57:15;4.50;;;2.90;;
19167;SDS011;9716;53.114;18.040;2023-05-10T01:59:47;9.40;;;2.67;;
19167;SDS011;9716;53.114;18.040;2023-05-10T02:02:18;6.07;;;3.25;;
19167;SDS011;9716;53.114;18.040;2023-05-10T02:04:50;10.23;;;2.67;;
19167;SDS011;9716;53.114;18.040;2023-05-10T02:07:20;10.80;;;3.85;;
19167;SDS011;9716;53.114;18.040;2023-05-10T02:09:51;7.15;;;4.28;;
19167;SDS011;9716;53.114;18.040;2023-05-10T02:12:19;11.07;;;2.67;;
19167;SDS011;9716;53.114;18.040;2023-05-10T02:14:50;9.88;;;2.75;;
19167;SDS011;9716;53.114;18.040;2023-05-10T02:17:20;7.82;;;2.63;;
19167;SDS011;9716;53.114;18.040;2023-05-10T02:19:52;7.88;;;3.53;;
19167;SDS011;9716;53.114;18.040;2023-05-10T02:22:22;5.97;;;3.03;;
19167;SDS011;9716;53.114;18.040;2023-05-10T02:24:53;5.75;;;2.90;;
19167;SDS011;9716;53.114;18.040;2023-05-10T02:27:22;5.40;;;3.45;;
19167;SDS011;9716;53.114;18.040;2023-05-10T02:29:53;7.85;;;3.67;;
19167;SDS011;9716;53.114;18.040;2023-05-10T02:32:21;4.15;;;2.85;;
19167;SDS011;9716;53.114;18.040;2023-05-10T02:34:53;8.00;;;3.28;;
19167;SDS011;9716;53.114;18.040;2023-05-10T02:37:23;12.48;;;4.05;;
19167;SDS011;9716;53.114;18.040;2023-05-10T02:39:54;6.00;;;3.28;;
19167;SDS011;9716;53.114;18.040;2023-05-10T02:42:25;11.25;;;3.85;;
19167;SDS011;9716;53.114;18.040;2023-05-10T02:44:56;15.50;;;3.50;;
19167;SDS011;9716;53.114;18.040;2023-05-10T02:47:27;6.68;;;3.00;;
19167;SDS011;9716;53.114;18.040;2023-05-10T02:49:58;6.05;;;2.28;;
19167;SDS011;9716;53.114;18.040;2023-05-10T02:52:27;7.88;;;3.78;;
19167;SDS011;9716;53.114;18.040;2023-05-10T02:55:00;10.23;;;3.55;;
19167;SDS011;9716;53.114;18.040;2023-05-10T02:57:32;7.97;;;2.88;;
19167;SDS011;9716;53.114;18.040;2023-05-10T03:00:02;10.90;;;3.15;;
19167;SDS011;9716;53.114;18.040;2023-05-10T03:02:31;7.63;;;3.38;;
19167;SDS011;9716;53.114;18.040;2023-05-10T03:05:01;7.85;;;3.80;;
19167;SDS011;9716;53.114;18.040;2023-05-10T03:07:30;7.75;;;3.40;;
19167;SDS011;9716;53.114;18.040;2023-05-10T03:09:59;8.15;;;3.20;;
19167;SDS011;9716;53.114;18.040;2023-05-10T03:12:31;7.82;;;3.25;;
19167;SDS011;9716;53.114;18.040;2023-05-10T03:15:11;8.32;;;3.40;;
19167;SDS011;9716;53.114;18.040;2023-05-10T03:17:46;7.28;;;3.10;;
19167;SDS011;9716;53.114;18.040;2023-05-10T03:20:22;7.82;;;3.13;;
19167;SDS011;9716;53.114;18.040;2023-05-10T03:22:56;3.47;;;2.67;;
19167;SDS011;9716;53.114;18.040;2023-05-10T03:25:31;11.27;;;3.08;;
19167;SDS011;9716;53.114;18.040;2023-05-10T03:27:59;6.50;;;3.22;;
19167;SDS011;9716;53.114;18.040;2023-05-10T03:30:29;5.35;;;3.08;;
19167;SDS011;9716;53.114;18.040;2023-05-10T03:33:03;4.72;;;2.58;;
19167;SDS011;9716;53.114;18.040;2023-05-10T03:35:34;17.90;;;3.50;;
19167;SDS011;9716;53.114;18.040;2023-05-10T03:38:02;5.13;;;2.97;;
19167;SDS011;9716;53.114;18.040;2023-05-10T03:40:31;4.35;;;2.63;;
19167;SDS011;9716;53.114;18.040;2023-05-10T03:42:59;6.57;;;3.08;;
19167;SDS011;9716;53.114;18.040;2023-05-10T03:45:27;6.40;;;3.42;;
19167;SDS011;9716;53.114;18.040;2023-05-10T03:47:57;6.50;;;3.67;;
19167;SDS011;9716;53.114;18.040;2023-05-10T03:50:26;11.20;;;3.80;;
19167;SDS011;9716;53.114;18.040;2023-05-10T03:52:55;10.48;;;5.10;;
19167;SDS011;9716;53.114;18.040;2023-05-10T03:55:25;8.77;;;3.97;;
19167;SDS011;9716;53.114;18.040;2023-05-10T03:57:53;7.28;;;2.80;;
19167;SDS011;9716;53.114;18.040;2023-05-10T04:00:21;6.25;;;3.15;;
19167;SDS011;9716;53.114;18.040;2023-05-10T04:02:50;4.88;;;3.22;;
19167;SDS011;9716;53.114;18.040;2023-05-10T04:05:18;10.18;;;3.65;;
19167;SDS011;9716;53.114;18.040;2023-05-10T04:07:47;10.90;;;4.18;;
19167;SDS011;9716;53.114;18.040;2023-05-10T04:10:17;4.97;;;2.88;;
19167;SDS011;9716;53.114;18.040;2023-05-10T04:12:45;5.47;;;3.13;;
19167;SDS011;9716;53.114;18.040;2023-05-10T04:15:14;11.65;;;4.15;;
19167;SDS011;9716;53.114;18.040;2023-05-10T04:17:42;18.02;;;5.25;;
19167;SDS011;9716;53.114;18.040;2023-05-10T04:20:11;10.73;;;3.53;;
19167;SDS011;9716;53.114;18.040;2023-05-10T04:22:40;11.40;;;4.32;;
19167;SDS011;9716;53.114;18.040;2023-05-10T04:25:09;7.63;;;3.10;;
19167;SDS011;9716;53.114;18.040;2023-05-10T04:27:38;8.07;;;3.38;;
19167;SDS011;9716;53.114;18.040;2023-05-10T04:30:07;6.50;;;3.92;;
19167;SDS011;9716;53.114;18.040;2023-05-10T04:32:37;9.38;;;3.22;;
19167;SDS011;9716;53.114;18.040;2023-05-10T04:35:05;13.85;;;3.17;;
19167;SDS011;9716;53.114;18.040;2023-05-10T04:37:35;14.63;;;4.13;;
19167;SDS011;9716;53.114;18.040;2023-05-10T04:40:04;6.05;;;3.47;;
19167;SDS011;9716;53.114;18.040;2023-05-10T04:42:34;7.68;;;3.15;;
19167;SDS011;9716;53.114;18.040;2023-05-10T04:45:04;6.15;;;2.58;;
19167;SDS011;9716;53.114;18.040;2023-05-10T04:47:33;7.35;;;3.13;;
19167;SDS011;9716;53.114;18.040;2023-05-10T04:50:02;6.63;;;3.15;;
19167;SDS011;9716;53.114;18.040;2023-05-10T04:52:30;6.55;;;3.42;;
19167;SDS011;9716;53.114;18.040;2023-05-10T04:54:59;8.15;;;3.25;;
19167;SDS011;9716;53.114;18.040;2023-05-10T04:57:27;14.13;;;3.88;;
19167;SDS011;9716;53.114;18.040;2023-05-10T04:59:55;9.60;;;4.75;;
19167;SDS011;9716;53.114;18.040;2023-05-10T05:02:25;8.57;;;5.30;;
19167;SDS011;9716;53.114;18.040;2023-05-10T05:04:55;11.70;;;3.83;;
19167;SDS011;9716;53.114;18.040;2023-05-10T05:07:25;7.57;;;2.42;;
19167;SDS011;9716;53.114;18.040;2023-05-10T05:09:53;8.80;;;3.20;;
19167;SDS011;9716;53.114;18.040;2023-05-10T05:12:22;8.45;;;2.72;;
19167;SDS011;9716;53.114;18.040;2023-05-10T05:14:50;4.88;;;3.10;;
19167;SDS011;9716;53.114;18.040;2023-05-10T05:17:18;4.13;;;2.08;;
19167;SDS011;9716;53.114;18.040;2023-05-10T05:19:48;12.43;;;2.92;;
19167;SDS011;9716;53.114;18.040;2023-05-10T05:22:17;3.45;;;2.55;;
19167;SDS011;9716;53.114;18.040;2023-05-10T05:24:46;7.18;;;2.28;;
19167;SDS011;9716;53.114;18.040;2023-05-10T05:27:14;6.80;;;2.22;;
19167;SDS011;9716;53.114;18.040;2023-05-10T05:29:44;13.90;;;2.90;;
19167;SDS011;9716;53.114;18.040;2023-05-10T05:32:12;4.78;;;2.90;;
19167;SDS011;9716;53.114;18.040;2023-05-10T05:34:41;7.47;;;2.97;;
19167;SDS011;9716;53.114;18.040;2023-05-10T05:37:13;3.58;;;2.25;;
19167;SDS011;9716;53.114;18.040;2023-05-10T05:39:42;2.60;;;1.90;;
19167;SDS011;9716;53.114;18.040;2023-05-10T05:42:11;5.70;;;2.42;;
19167;SDS011;9716;53.114;18.040;2023-05-10T05:44:40;6.65;;;1.85;;
19167;SDS011;9716;53.114;18.040;2023-05-10T05:47:08;3.40;;;2.00;;
19167;SDS011;9716;53.114;18.040;2023-05-10T05:49:37;6.75;;;2.17;;
19167;SDS011;9716;53.114;18.040;2023-05-10T05:52:06;1.98;;;1.55;;
19167;SDS011;9716;53.114;18.040;2023-05-10T05:54:35;6.93;;;2.28;;
19167;SDS011;9716;53.114;18.040;2023-05-10T05:57:04;13.48;;;1.95;;
19167;SDS011;9716;53.114;18.040;2023-05-10T05:59:35;6.63;;;2.33;;
19167;SDS011;9716;53.114;18.040;2023-05-10T06:02:08;5.57;;;2.33;;
19167;SDS011;9716;53.114;18.040;2023-05-10T06:04:37;3.75;;;1.85;;
19167;SDS011;9716;53.114;18.040;2023-05-10T06:07:10;3.95;;;2.28;;
19167;SDS011;9716;53.114;18.040;2023-05-10T06:09:39;3.33;;;2.03;;
19167;SDS011;9716;53.114;18.040;2023-05-10T06:12:08;2.38;;;1.65;;
19167;SDS011;9716;53.114;18.040;2023-05-10T06:14:38;2.75;;;1.50;;
19167;SDS011;9716;53.114;18.040;2023-05-10T06:17:06;5.53;;;2.15;;
19167;SDS011;9716;53.114;18.040;2023-05-10T06:19:37;2.47;;;1.65;;
19167;SDS011;9716;53.114;18.040;2023-05-10T06:22:05;2.35;;;1.70;;
19167;SDS011;9716;53.114;18.040;2023-05-10T06:24:33;4.82;;;2.55;;
19167;SDS011;9716;53.114;18.040;2023-05-10T06:27:03;7.47;;;2.17;;
19167;SDS011;9716;53.114;18.040;2023-05-10T06:29:32;5.00;;;1.52;;
19167;SDS011;9716;53.114;18.040;2023-05-10T06:32:00;6.40;;;1.90;;
19167;SDS011;9716;53.114;18.040;2023-05-10T06:34:29;2.08;;;1.30;;
19167;SDS011;9716;53.114;18.040;2023-05-10T06:36:58;5.95;;;2.15;;
19167;SDS011;9716;53.114;18.040;2023-05-10T06:39:26;3.10;;;1.83;;
19167;SDS011;9716;53.114;18.040;2023-05-10T06:41:55;3.55;;;1.92;;
19167;SDS011;9716;53.114;18.040;2023-05-10T06:44:25;3.03;;;1.60;;
19167;SDS011;9716;53.114;18.040;2023-05-10T06:46:53;10.32;;;1.80;;
19167;SDS011;9716;53.114;18.040;2023-05-10T06:49:22;5.97;;;1.50;;
19167;SDS011;9716;53.114;18.040;2023-05-10T06:51:50;1.38;;;1.20;;
19167;SDS011;9716;53.114;18.040;2023-05-10T06:54:19;6.38;;;2.42;;
19167;SDS011;9716;53.114;18.040;2023-05-10T06:56:47;7.63;;;1.73;;
19167;SDS011;9716;53.114;18.040;2023-05-10T06:59:15;4.18;;;2.00;;
19167;SDS011;9716;53.114;18.040;2023-05-10T07:01:47;5.60;;;2.30;;
19167;SDS011;9716;53.114;18.040;2023-05-10T07:04:16;2.63;;;1.58;;
19167;SDS011;9716;53.114;18.040;2023-05-10T07:06:44;4.78;;;2.20;;
19167;SDS011;9716;53.114;18.040;2023-05-10T07:09:13;2.28;;;1.33;;
19167;SDS011;9716;53.114;18.040;2023-05-10T07:11:42;3.13;;;1.83;;
19167;SDS011;9716;53.114;18.040;2023-05-10T07:14:10;4.53;;;2.08;;
19167;SDS011;9716;53.114;18.040;2023-05-10T07:16:39;2.25;;;1.90;;
19167;SDS011;9716;53.114;18.040;2023-05-10T07:19:09;18.48;;;2.55;;
19167;SDS011;9716;53.114;18.040;2023-05-10T07:21:37;2.90;;;1.67;;
19167;SDS011;9716;53.114;18.040;2023-05-10T07:24:07;3.63;;;1.63;;
19167;SDS011;9716;53.114;18.040;2023-05-10T07:26:38;2.38;;;1.67;;
19167;SDS011;9716;53.114;18.040;2023-05-10T07:29:07;2.75;;;1.88;;
19167;SDS011;9716;53.114;18.040;2023-05-10T07:31:36;1.95;;;1.40;;
19167;SDS011;9716;53.114;18.040;2023-05-10T07:34:05;2.17;;;1.48;;
19167;SDS011;9716;53.114;18.040;2023-05-10T07:36:35;2.35;;;1.58;;
19167;SDS011;9716;53.114;18.040;2023-05-10T07:39:03;10.82;;;1.77;;
19167;SDS011;9716;53.114;18.040;2023-05-10T07:41:32;8.00;;;2.05;;
19167;SDS011;9716;53.114;18.040;2023-05-10T07:44:01;2.35;;;1.30;;
19167;SDS011;9716;53.114;18.040;2023-05-10T07:46:30;1.42;;;1.33;;
19167;SDS011;9716;53.114;18.040;2023-05-10T07:48:58;2.88;;;1.50;;
19167;SDS011;9716;53.114;18.040;2023-05-10T07:51:27;2.00;;;1.30;;
19167;SDS011;9716;53.114;18.040;2023-05-10T07:53:57;4.22;;;2.00;;
19167;SDS011;9716;53.114;18.040;2023-05-10T07:56:26;4.18;;;1.75;;
19167;SDS011;9716;53.114;18.040;2023-05-10T07:58:56;2.17;;;1.45;;
19167;SDS011;9716;53.114;18.040;2023-05-10T08:01:25;4.30;;;1.67;;
19167;SDS011;9716;53.114;18.040;2023-05-10T08:03:54;2.53;;;1.65;;
19167;SDS011;9716;53.114;18.040;2023-05-10T08:06:23;5.90;;;1.30;;
19167;SDS011;9716;53.114;18.040;2023-05-10T08:08:53;4.75;;;1.83;;
19167;SDS011;9716;53.114;18.040;2023-05-10T08:11:23;1.58;;;1.13;;
19167;SDS011;9716;53.114;18.040;2023-05-10T08:13:51;2.17;;;1.65;;
19167;SDS011;9716;53.114;18.040;2023-05-10T08:16:20;1.20;;;0.75;;
19167;SDS011;9716;53.114;18.040;2023-05-10T08:18:49;9.45;;;1.60;;
19167;SDS011;9716;53.114;18.040;2023-05-10T08:21:18;6.05;;;1.55;;
19167;SDS011;9716;53.114;18.040;2023-05-10T08:23:46;2.28;;;1.52;;
19167;SDS011;9716;53.114;18.040;2023-05-10T08:26:15;10.20;;;1.80;;
19167;SDS011;9716;53.114;18.040;2023-05-10T08:28:45;2.33;;;1.50;;
19167;SDS011;9716;53.114;18.040;2023-05-10T08:31:14;5.07;;;1.48;;
19167;SDS011;9716;53.114;18.040;2023-05-10T08:33:43;3.50;;;1.70;;
19167;SDS011;9716;53.114;18.040;2023-05-10T08:36:11;2.22;;;1.40;;
19167;SDS011;9716;53.114;18.040;2023-05-10T08:38:46;2.50;;;2.03;;
19167;SDS011;9716;53.114;18.040;2023-05-10T08:41:16;2.60;;;1.73;;
19167;SDS011;9716;53.114;18.040;2023-05-10T08:43:49;6.75;;;1.27;;
19167;SDS011;9716;53.114;18.040;2023-05-10T08:46:19;2.22;;;1.63;;
19167;SDS011;9716;53.114;18.040;2023-05-10T08:48:49;3.35;;;1.95;;
19167;SDS011;9716;53.114;18.040;2023-05-10T08:51:19;3.90;;;1.80;;
19167;SDS011;9716;53.114;18.040;2023-05-10T08:53:50;1.30;;;1.08;;
19167;SDS011;9716;53.114;18.040;2023-05-10T08:56:19;5.13;;;1.30;;
19167;SDS011;9716;53.114;18.040;2023-05-10T08:58:49;6.40;;;1.77;;
19167;SDS011;9716;53.114;18.040;2023-05-10T09:01:18;6.15;;;1.50;;
19167;SDS011;9716;53.114;18.040;2023-05-10T09:03:46;2.60;;;1.27;;
19167;SDS011;9716;53.114;18.040;2023-05-10T09:06:16;10.77;;;1.60;;
19167;SDS011;9716;53.114;18.040;2023-05-10T09:08:45;1.77;;;1.33;;
19167;SDS011;9716;53.114;18.040;2023-05-10T09:11:14;0.90;;;0.90;;
19167;SDS011;9716;53.114;18.040;2023-05-10T09:13:43;5.25;;;1.83;;
19167;SDS011;9716;53.114;18.040;2023-05-10T09:16:14;7.65;;;2.53;;
19167;SDS011;9716;53.114;18.040;2023-05-10T09:18:47;9.13;;;1.77;;
19167;SDS011;9716;53.114;18.040;2023-05-10T09:21:17;11.70;;;2.22;;
19167;SDS011;9716;53.114;18.040;2023-05-10T09:23:47;4.95;;;3.33;;
19167;SDS011;9716;53.114;18.040;2023-05-10T09:26:17;7.50;;;3.85;;
19167;SDS011;9716;53.114;18.040;2023-05-10T09:28:51;8.85;;;3.05;;
19167;SDS011;9716;53.114;18.040;2023-05-10T09:31:21;5.93;;;2.60;;
19167;SDS011;9716;53.114;18.040;2023-05-10T09:33:50;5.30;;;1.88;;
19167;SDS011;9716;53.114;18.040;2023-05-10T09:36:19;2.85;;;1.65;;
19167;SDS011;9716;53.114;18.040;2023-05-10T09:38:47;5.03;;;2.72;;
19167;SDS011;9716;53.114;18.040;2023-05-10T09:41:18;6.68;;;3.03;;
19167;SDS011;9716;53.114;18.040;2023-05-10T09:43:48;8.52;;;2.78;;
19167;SDS011;9716;53.114;18.040;2023-05-10T09:46:17;15.85;;;2.55;;
19167;SDS011;9716;53.114;18.040;2023-05-10T09:48:47;10.05;;;1.95;;
19167;SDS011;9716;53.114;18.040;2023-05-10T09:51:19;3.53;;;2.17;;
19167;SDS011;9716;53.114;18.040;2023-05-10T09:53:48;8.57;;;3.90;;
19167;SDS011;9716;53.114;18.040;2023-05-10T09:56:36;9.75;;;4.30;;
19167;SDS011;9716;53.114;18.040;2023-05-10T09:59:07;15.02;;;3.63;;
19167;SDS011;9716;53.114;18.040;2023-05-10T10:01:37;4.80;;;2.53;;
19167;SDS011;9716;53.114;18.040;2023-05-10T10:04:08;5.82;;;2.30;;
19167;SDS011;9716;53.114;18.040;2023-05-10T10:06:38;7.43;;;1.50;;
19167;SDS011;9716;53.114;18.040;2023-05-10T10:09:07;8.40;;;3.40;;
19167;SDS011;9716;53.114;18.040;2023-05-10T10:11:37;95.15;;;9.48;;
19167;SDS011;9716;53.114;18.040;2023-05-10T10:14:06;13.10;;;5.30;;
19167;SDS011;9716;53.114;18.040;2023-05-10T10:16:34;13.32;;;4.20;;
19167;SDS011;9716;53.114;18.040;2023-05-10T10:19:18;4.53;;;2.78;;
19167;SDS011;9716;53.114;18.040;2023-05-10T10:21:48;11.98;;;4.53;;
19167;SDS011;9716;53.114;18.040;2023-05-10T10:24:17;11.20;;;2.90;;
19167;SDS011;9716;53.114;18.040;2023-05-10T10:26:46;3.95;;;1.65;;
19167;SDS011;9716;53.114;18.040;2023-05-10T10:29:20;12.93;;;1.88;;
19167;SDS011;9716;53.114;18.040;2023-05-10T10:31:55;4.15;;;2.58;;
19167;SDS011;9716;53.114;18.040;2023-05-10T10:34:31;6.78;;;3.50;;
19167;SDS011;9716;53.114;18.040;2023-05-10T10:37:03;8.13;;;2.67;;
19167;SDS011;9716;53.114;18.040;2023-05-10T10:39:33;6.13;;;3.67;;
19167;SDS011;9716;53.114;18.040;2023-05-10T10:42:03;2.60;;;1.67;;
19167;SDS011;9716;53.114;18.040;2023-05-10T10:44:36;7.13;;;1.50;;
19167;SDS011;9716;53.114;18.040;2023-05-10T10:47:21;2.92;;;1.88;;
19167;SDS011;9716;53.114;18.040;2023-05-10T10:50:01;5.88;;;2.17;;
19167;SDS011;9716;53.114;18.040;2023-05-10T10:52:32;4.82;;;2.38;;
19167;SDS011;9716;53.114;18.040;2023-05-10T10:55:02;4.25;;;1.88;;
19167;SDS011;9716;53.114;18.040;2023-05-10T10:57:42;15.60;;;2.08;;
19167;SDS011;9716;53.114;18.040;2023-05-10T11:00:21;7.10;;;1.83;;
19167;SDS011;9716;53.114;18.040;2023-05-10T11:02:52;8.82;;;2.45;;
19167;SDS011;9716;53.114;18.040;2023-05-10T11:08:11;14.90;;;3.63;;
19167;SDS011;9716;53.114;18.040;2023-05-10T11:10:51;1.92;;;1.52;;
19167;SDS011;9716;53.114;18.040;2023-05-10T11:13:28;3.95;;;1.50;;
19167;SDS011;9716;53.114;18.040;2023-05-10T11:15:57;7.65;;;1.92;;
19167;SDS011;9716;53.114;18.040;2023-05-10T11:18:28;22.15;;;2.33;;
19167;SDS011;9716;53.114;18.040;2023-05-10T11:20:59;7.82;;;2.40;;
19167;SDS011;9716;53.114;18.040;2023-05-10T11:23:30;2.80;;;1.45;;
19167;SDS011;9716;53.114;18.040;2023-05-10T11:25:59;16.88;;;2.13;;
19167;SDS011;9716;53.114;18.040;2023-05-10T11:28:28;2.20;;;1.60;;
19167;SDS011;9716;53.114;18.040;2023-05-10T11:30:57;4.40;;;2.45;;
19167;SDS011;9716;53.114;18.040;2023-05-10T11:33:26;2.83;;;1.88;;
19167;SDS011;9716;53.114;18.040;2023-05-10T11:35:54;11.55;;;2.13;;
19167;SDS011;9716;53.114;18.040;2023-05-10T11:38:24;14.20;;;2.25;;
19167;SDS011;9716;53.114;18.040;2023-05-10T11:40:52;5.10;;;1.90;;
19167;SDS011;9716;53.114;18.040;2023-05-10T11:43:23;5.63;;;1.92;;
19167;SDS011;9716;53.114;18.040;2023-05-10T11:45:54;3.38;;;1.77;;
19167;SDS011;9716;53.114;18.040;2023-05-10T11:48:23;21.40;;;2.10;;
19167;SDS011;9716;53.114;18.040;2023-05-10T11:50:51;2.42;;;1.45;;
19167;SDS011;9716;53.114;18.040;2023-05-10T11:53:26;2.53;;;1.75;;
19167;SDS011;9716;53.114;18.040;2023-05-10T11:55:55;1.80;;;1.25;;
19167;SDS011;9716;53.114;18.040;2023-05-10T11:58:30;5.07;;;1.30;;
19167;SDS011;9716;53.114;18.040;2023-05-10T12:00:59;3.08;;;1.65;;
19167;SDS011;9716;53.114;18.040;2023-05-10T12:03:28;5.55;;;1.70;;
19167;SDS011;9716;53.114;18.040;2023-05-10T12:05:57;1.65;;;1.20;;
19167;SDS011;9716;53.114;18.040;2023-05-10T12:08:29;4.72;;;1.67;;
19167;SDS011;9716;53.114;18.040;2023-05-10T12:11:07;5.13;;;1.70;;
19167;SDS011;9716;53.114;18.040;2023-05-10T12:13:37;3.28;;;1.63;;
19167;SDS011;9716;53.114;18.040;2023-05-10T12:16:13;5.65;;;2.20;;
19167;SDS011;9716;53.114;18.040;2023-05-10T12:18:43;2.10;;;1.55;;
19167;SDS011;9716;53.114;18.040;2023-05-10T12:21:12;3.10;;;1.50;;
19167;SDS011;9716;53.114;18.040;2023-05-10T12:23:42;2.15;;;1.48;;
19167;SDS011;9716;53.114;18.040;2023-05-10T12:26:13;6.60;;;2.13;;
19167;SDS011;9716;53.114;18.040;2023-05-10T12:28:42;3.78;;;1.90;;
19167;SDS011;9716;53.114;18.040;2023-05-10T12:31:10;17.80;;;2.00;;
19167;SDS011;9716;53.114;18.040;2023-05-10T12:33:39;2.20;;;1.60;;
19167;SDS011;9716;53.114;18.040;2023-05-10T12:36:09;2.20;;;1.67;;
19167;SDS011;9716;53.114;18.040;2023-05-10T12:38:40;7.50;;;3.55;;
19167;SDS011;9716;53.114;18.040;2023-05-10T12:41:10;7.22;;;1.80;;
19167;SDS011;9716;53.114;18.040;2023-05-10T12:43:40;1.67;;;1.33;;
19167;SDS011;9716;53.114;18.040;2023-05-10T12:46:09;13.77;;;1.85;;
19167;SDS011;9716;53.114;18.040;2023-05-10T12:48:38;4.45;;;2.22;;
19167;SDS011;9716;53.114;18.040;2023-05-10T12:51:08;11.48;;;2.25;;
19167;SDS011;9716;53.114;18.040;2023-05-10T12:53:38;15.82;;;2.28;;
19167;SDS011;9716;53.114;18.040;2023-05-10T12:56:12;7.05;;;2.13;;
19167;SDS011;9716;53.114;18.040;2023-05-10T12:58:41;9.40;;;1.77;;
19167;SDS011;9716;53.114;18.040;2023-05-10T13:01:14;14.40;;;2.03;;
19167;SDS011;9716;53.114;18.040;2023-05-10T13:03:43;7.50;;;1.98;;
19167;SDS011;9716;53.114;18.040;2023-05-10T13:06:11;4.07;;;2.08;;
19167;SDS011;9716;53.114;18.040;2023-05-10T13:08:40;4.22;;;2.17;;
19167;SDS011;9716;53.114;18.040;2023-05-10T13:11:09;6.75;;;1.98;;
19167;SDS011;9716;53.114;18.040;2023-05-10T13:13:39;2.47;;;1.13;;
19167;SDS011;9716;53.114;18.040;2023-05-10T13:16:07;3.60;;;1.55;;
19167;SDS011;9716;53.114;18.040;2023-05-10T13:18:35;7.95;;;1.95;;
19167;SDS011;9716;53.114;18.040;2023-05-10T13:21:04;4.10;;;1.75;;
19167;SDS011;9716;53.114;18.040;2023-05-10T13:23:32;3.85;;;1.73;;
19167;SDS011;9716;53.114;18.040;2023-05-10T13:26:01;4.10;;;1.38;;
19167;SDS011;9716;53.114;18.040;2023-05-10T13:28:31;9.95;;;2.20;;
19167;SDS011;9716;53.114;18.040;2023-05-10T13:31:01;11.52;;;2.72;;
19167;SDS011;9716;53.114;18.040;2023-05-10T13:33:30;6.68;;;2.10;;
19167;SDS011;9716;53.114;18.040;2023-05-10T13:35:58;6.38;;;2.20;;
19167;SDS011;9716;53.114;18.040;2023-05-10T13:38:26;5.72;;;2.45;;
19167;SDS011;9716;53.114;18.040;2023-05-10T13:40:55;2.65;;;1.67;;
19167;SDS011;9716;53.114;18.040;2023-05-10T13:43:23;13.88;;;1.88;;
19167;SDS011;9716;53.114;18.040;2023-05-10T13:45:51;2.35;;;1.63;;
19167;SDS011;9716;53.114;18.040;2023-05-10T13:48:21;3.78;;;1.83;;
19167;SDS011;9716;53.114;18.040;2023-05-10T13:50:50;4.07;;;2.03;;
19167;SDS011;9716;53.114;18.040;2023-05-10T13:53:18;18.65;;;2.22;;
19167;SDS011;9716;53.114;18.040;2023-05-10T13:55:47;4.97;;;1.80;;
19167;SDS011;9716;53.114;18.040;2023-05-10T13:58:16;19.30;;;1.88;;
19167;SDS011;9716;53.114;18.040;2023-05-10T14:00:44;15.27;;;1.58;;
19167;SDS011;9716;53.114;18.040;2023-05-10T14:03:12;1.98;;;1.30;;
19167;SDS011;9716;53.114;18.040;2023-05-10T14:05:43;2.85;;;1.85;;
19167;SDS011;9716;53.114;18.040;2023-05-10T14:08:12;2.05;;;1.63;;
19167;SDS011;9716;53.114;18.040;2023-05-10T14:10:41;3.60;;;1.73;;
19167;SDS011;9716;53.114;18.040;2023-05-10T14:13:10;2.83;;;1.67;;
19167;SDS011;9716;53.114;18.040;2023-05-10T14:15:38;2.90;;;1.85;;
19167;SDS011;9716;53.114;18.040;2023-05-10T14:18:07;2.40;;;1.67;;
19167;SDS011;9716;53.114;18.040;2023-05-10T14:20:35;9.95;;;2.13;;
19167;SDS011;9716;53.114;18.040;2023-05-10T14:23:05;2.78;;;1.70;;
19167;SDS011;9716;53.114;18.040;2023-05-10T14:25:37;5.32;;;1.98;;
19167;SDS011;9716;53.114;18.040;2023-05-10T14:28:05;2.80;;;1.48;;
19167;SDS011;9716;53.114;18.040;2023-05-10T14:30:34;9.55;;;1.85;;
19167;SDS011;9716;53.114;18.040;2023-05-10T14:33:03;3.40;;;1.75;;
19167;SDS011;9716;53.114;18.040;2023-05-10T14:35:31;1.98;;;1.45;;
19167;SDS011;9716;53.114;18.040;2023-05-10T14:38:00;3.33;;;1.80;;
19167;SDS011;9716;53.114;18.040;2023-05-10T14:40:31;9.35;;;1.90;;
19167;SDS011;9716;53.114;18.040;2023-05-10T14:42:59;2.95;;;1.52;;
19167;SDS011;9716;53.114;18.040;2023-05-10T14:45:28;1.27;;;1.15;;
19167;SDS011;9716;53.114;18.040;2023-05-10T14:47:56;3.03;;;1.63;;
19167;SDS011;9716;53.114;18.040;2023-05-10T14:50:25;2.15;;;1.70;;
19167;SDS011;9716;53.114;18.040;2023-05-10T14:53:03;1.77;;;1.50;;
19167;SDS011;9716;53.114;18.040;2023-05-10T14:55:33;5.20;;;2.15;;
19167;SDS011;9716;53.114;18.040;2023-05-10T14:58:02;2.25;;;1.70;;
19167;SDS011;9716;53.114;18.040;2023-05-10T15:00:30;3.17;;;1.67;;
19167;SDS011;9716;53.114;18.040;2023-05-10T15:02:59;20.80;;;2.22;;
19167;SDS011;9716;53.114;18.040;2023-05-10T15:05:28;19.58;;;2.45;;